LSMMLSZS

Guest
Details From LSMM - Meiringen
To LSZS - Samedan
Flight Number -
Tags Routegen Generated
Created
Modified
Stats Distance 79 nm / 147 km
Max Altitude 100 ft / 30 m
Waypoints 10
Social Downloads 3
Likes 0
Share VATSIM

Download

Looking for another format? Having issues loading an existing format? Contact us
Advertisement - Login to hide

Notes

Departing runway 9 LSMM. Arriving runway 2 LSZS.

Route

LSMM +46.73_+008.23 +46.71_+008.30 +46.58_+008.84 +46.42_+009.52 +46.40_+009.60 +46.40_+009.69 +46.43_+009.76 +46.46_+009.83 LSZS

ID Type Via Altitude Latitude Longitude Leg Dist Tot Dist Heading (true) Name
O LSMM APT - 0 ft / 0 m 46.74124˚ 8.12242˚ - 0 nm - -
+46.73_+008.23 LATLON - 100 ft / 30 m 46.73285˚ 8.22730˚ 4 nm 4 nm 97° / 97° -
+46.71_+008.30 LATLON - 100 ft / 30 m 46.70688˚ 8.30277˚ 3 nm 7 nm 117° / 117° -
+46.58_+008.84 LATLON - 100 ft / 30 m 46.58161˚ 8.84234˚ 23 nm 31 nm 108° / 109° -
+46.42_+009.52 LATLON - 100 ft / 30 m 46.42256˚ 9.52223˚ 29 nm 60 nm 109° / 109° -
+46.40_+009.60 LATLON - 100 ft / 30 m 46.40373˚ 9.60163˚ 3 nm 64 nm 109° / 109° -
+46.40_+009.69 LATLON - 100 ft / 30 m 46.40476˚ 9.68558˚ 3 nm 67 nm 89° / 89° -
+46.43_+009.76 LATLON - 100 ft / 30 m 46.42553˚ 9.76396˚ 3 nm 71 nm 69° / 69° -
+46.46_+009.83 LATLON - 100 ft / 30 m 46.46353˚ 9.82735˚ 3 nm 74 nm 49° / 49° -
O LSZS APT - 0 ft / 0 m 46.52683˚ 9.87829˚ 4 nm 79 nm 29° / 29° Samedan

Altitude Profile

Advertisement - Login to hide

LSMM

Details ICAO LSMM
Name Meiringen
Region Switzerland
Timezone Europe/Zurich (UTC+1.0)
Stats Elevation 1,879 ft / 573 m (AMSL)
Location 46.742327° 8.108747°
Runways 1
Magnetic Variation 2.235° E

METAR

LSMM 180050Z AUTO 12003KT 070V140 9999NDV BKN140 M05/M08 Q1027 RMK

Decode

TAF

Not found

Departure Runways

ID Width Length Bearing (true) Bearing (mag) Surface Threshold Offset Overrun Length
10 131 ft / 40 m 6,884 ft / 2,098 m 96.60° 94.36° Concrete 150 ft / 46 m 623 ft / 190 m
28 131 ft / 40 m 6,884 ft / 2,098 m 276.62° 274.38° Concrete 150 ft / 46 m 623 ft / 190 m

LSZS

Details ICAO LSZS (SMV)
Name Samedan
Region Switzerland
Timezone Europe/Zurich (UTC+1.0)
Stats Elevation 5,600 ft / 1,707 m (AMSL)
Location 46.534207° 9.883938°
Runways 1
Magnetic Variation 2.658° E

METAR

LSZS 180120Z AUTO 19005KT CAVOK M18/M20 Q1020

Decode

TAF

Not found

Destination Runways

ID Width Length Bearing (true) Bearing (mag) Surface Threshold Offset Overrun Length
03 131 ft / 40 m 6,059 ft / 1,847 m 29.10° 26.44° Asphalt 0 ft / 0 m 0 ft / 0 m
21 131 ft / 40 m 6,059 ft / 1,847 m 209.10° 206.44° Asphalt 361 ft / 110 m 0 ft / 0 m

Popular Alternatives